Time;durP1;ratioP1;P1;durP2;ratioP2;P2;SDS_P1;SDS_P2;PMS_P1;PMS_P2;Temp;Humidity;BMP_temperature;BMP_pressure;BME280_temperature;BME280_humidity;BME280_pressure;Samples;Min_cycle;Max_cycle;Signal;HPM_P1;HPM_P2
2020/12/25 00:00:13;;;;;;;;;;;11.70;92.60;;;;;;2094219;28;727;-53
2020/12/25 00:01:32;;;;;;;;;;;11.70;92.80;;;;;;2094000;28;1098;-54
2020/12/25 00:02:51;;;;;;;;;;;11.70;92.80;;;;;;2094152;28;992;-53
2020/12/25 00:04:10;;;;;;;;;;;11.70;92.60;;;;;;2095247;28;1176;-54
2020/12/25 00:05:29;;;;;;;;;;;11.70;92.60;;;;;;2094354;28;1305;-53
2020/12/25 00:06:49;;;;;;;;;;;11.70;92.70;;;;;;2097964;28;1040;-55
2020/12/25 00:08:08;;;;;;;;;;;11.70;92.70;;;;;;2097814;28;853;-52
2020/12/25 00:09:27;;;;;;;;;;;11.70;92.80;;;;;;2083884;28;772;-55
2020/12/25 00:10:47;;;;;;;;;;;11.70;92.90;;;;;;2089953;28;800;-53
2020/12/25 00:12:07;;;;;;;;;;;11.70;92.80;;;;;;2097762;28;1364;-52
2020/12/25 00:13:25;;;;;;;;;;;11.70;92.80;;;;;;2097092;28;740;-53
2020/12/25 00:14:44;;;;;;;;;;;11.70;92.70;;;;;;2097176;28;713;-53
2020/12/25 00:16:04;;;;;;;;;;;11.70;93.00;;;;;;2097695;28;729;-54
2020/12/25 00:17:23;;;;;;;;;;;11.70;93.20;;;;;;2097868;28;729;-53
2020/12/25 00:18:42;;;;;;;;;;;11.70;93.10;;;;;;2098382;28;2326;-52
2020/12/25 00:20:02;;;;;;;;;;;11.70;92.70;;;;;;2087934;28;1106;-51
2020/12/25 00:21:21;;;;;;;;;;;11.70;92.90;;;;;;2091034;28;1257;-54
2020/12/25 00:22:40;;;;;;;;;;;11.70;92.80;;;;;;2082275;28;1317;-52
2020/12/25 00:23:59;;;;;;;;;;;11.70;92.90;;;;;;2082929;28;707;-55
2020/12/25 00:25:19;;;;;;;;;;;11.70;92.90;;;;;;2082133;28;741;-52
2020/12/25 00:26:38;;;;;;;;;;;11.70;92.80;;;;;;2082394;28;720;-54
2020/12/25 00:27:57;;;;;;;;;;;11.70;92.80;;;;;;2083020;28;771;-55
2020/12/25 00:29:16;;;;;;;;;;;11.70;92.80;;;;;;2082844;28;717;-55
2020/12/25 00:30:35;;;;;;;;;;;11.70;92.80;;;;;;2082293;28;779;-54
2020/12/25 00:31:54;;;;;;;;;;;11.70;93.00;;;;;;2091670;28;1412;-53
2020/12/25 00:33:14;;;;;;;;;;;11.70;93.00;;;;;;2092499;28;1182;-55
2020/12/25 00:34:33;;;;;;;;;;;11.70;92.90;;;;;;2099000;28;1910;-53
2020/12/25 00:35:52;;;;;;;;;;;11.70;93.00;;;;;;2107138;28;718;-55
2020/12/25 00:37:11;;;;;;;;;;;11.70;93.30;;;;;;2085410;28;765;-53
2020/12/25 00:38:30;;;;;;;;;;;11.70;93.30;;;;;;2092453;28;787;-52
2020/12/25 00:39:50;;;;;;;;;;;11.60;92.90;;;;;;2099305;28;756;-54
2020/12/25 00:41:09;;;;;;;;;;;11.70;93.10;;;;;;2090371;28;702;-52
2020/12/25 00:42:28;;;;;;;;;;;11.70;93.10;;;;;;2095845;28;1328;-55
2020/12/25 00:43:47;;;;;;;;;;;11.70;92.90;;;;;;2089055;28;1533;-52
2020/12/25 00:45:07;;;;;;;;;;;11.70;93.00;;;;;;2094901;28;941;-53
2020/12/25 00:46:26;;;;;;;;;;;11.70;93.10;;;;;;2090426;28;753;-52
2020/12/25 00:47:45;;;;;;;;;;;11.70;93.10;;;;;;2095814;28;732;-52
2020/12/25 00:49:04;;;;;;;;;;;11.70;93.00;;;;;;2090279;28;776;-56
2020/12/25 00:50:24;;;;;;;;;;;11.70;93.00;;;;;;2095565;28;717;-54
2020/12/25 00:51:47;;;;;;;;;;;11.70;93.10;;;;;;2090439;28;806;-55
2020/12/25 00:53:06;;;;;;;;;;;11.70;93.00;;;;;;2095988;28;754;-54
2020/12/25 00:54:25;;;;;;;;;;;11.70;93.10;;;;;;2089738;28;1942;-53
2020/12/25 00:55:57;;;;;;;;;;;11.60;93.00;;;;;;2097092;28;742;-52
2020/12/25 00:57:17;;;;;;;;;;;11.70;93.00;;;;;;2085419;28;803;-54
2020/12/25 00:58:52;;;;;;;;;;;11.70;93.10;;;;;;2096572;28;786;-55
2020/12/25 01:00:15;;;;;;;;;;;11.70;93.00;;;;;;2107210;28;790;-54
2020/12/25 01:01:37;;;;;;;;;;;11.60;93.00;;;;;;2098444;28;1028;-55
2020/12/25 01:02:56;;;;;;;;;;;11.60;93.00;;;;;;2094704;28;1171;-55
2020/12/25 01:04:15;;;;;;;;;;;11.70;93.50;;;;;;2089078;28;1171;-52
2020/12/25 01:05:35;;;;;;;;;;;11.70;93.40;;;;;;2095367;28;743;-55
2020/12/25 01:06:54;;;;;;;;;;;11.60;93.10;;;;;;2099241;28;716;-54
2020/12/25 01:08:13;;;;;;;;;;;11.70;93.10;;;;;;2099142;28;744;-54
2020/12/25 01:09:32;;;;;;;;;;;11.60;93.10;;;;;;2098944;28;735;-54
2020/12/25 01:10:52;;;;;;;;;;;11.60;93.00;;;;;;2099093;28;702;-52
2020/12/25 01:12:11;;;;;;;;;;;11.60;93.10;;;;;;2098716;28;1371;-54
2020/12/25 01:13:30;;;;;;;;;;;11.60;93.10;;;;;;2099210;28;729;-53
2020/12/25 01:14:50;;;;;;;;;;;11.60;93.20;;;;;;2098802;28;768;-55
2020/12/25 01:16:15;;;;;;;;;;;11.60;93.10;;;;;;2098500;28;744;-53
2020/12/25 01:17:34;;;;;;;;;;;11.60;93.20;;;;;;2098748;28;717;-52
2020/12/25 01:18:53;;;;;;;;;;;11.60;93.20;;;;;;2099137;28;788;-51
2020/12/25 01:20:13;;;;;;;;;;;11.60;93.00;;;;;;2081730;28;738;-52
2020/12/25 01:21:32;;;;;;;;;;;11.70;93.10;;;;;;2092382;28;720;-53
2020/12/25 01:22:51;;;;;;;;;;;11.60;93.10;;;;;;2098791;28;728;-54
2020/12/25 01:24:10;;;;;;;;;;;11.60;93.10;;;;;;2090054;28;755;-53
2020/12/25 01:25:30;;;;;;;;;;;11.60;93.10;;;;;;2103131;28;1060;-53
2020/12/25 01:26:49;;;;;;;;;;;11.60;93.10;;;;;;2093275;28;729;-53
2020/12/25 01:28:08;;;;;;;;;;;11.60;93.10;;;;;;2086970;28;765;-53
2020/12/25 01:29:27;;;;;;;;;;;11.60;93.10;;;;;;2094629;28;726;-53
2020/12/25 01:30:46;;;;;;;;;;;11.60;93.20;;;;;;2089943;28;738;-52
2020/12/25 01:32:06;;;;;;;;;;;11.60;93.20;;;;;;2090087;28;1503;-53
2020/12/25 01:33:25;;;;;;;;;;;11.60;93.20;;;;;;2090681;28;813;-53
2020/12/25 01:34:44;;;;;;;;;;;11.60;93.60;;;;;;2098331;28;701;-53
2020/12/25 01:36:04;;;;;;;;;;;11.60;93.10;;;;;;2090135;28;722;-53
2020/12/25 01:37:23;;;;;;;;;;;11.60;93.10;;;;;;2095594;28;755;-53
2020/12/25 01:38:43;;;;;;;;;;;11.60;93.30;;;;;;2099033;28;755;-54
2020/12/25 01:40:03;;;;;;;;;;;11.60;93.30;;;;;;2090189;28;773;-52
2020/12/25 01:41:22;;;;;;;;;;;11.60;93.20;;;;;;2103323;28;751;-52
2020/12/25 01:42:41;;;;;;;;;;;11.60;93.20;;;;;;2093296;28;1356;-55
2020/12/25 01:44:00;;;;;;;;;;;11.60;93.30;;;;;;2103366;28;718;-54
2020/12/25 01:45:20;;;;;;;;;;;11.60;93.20;;;;;;2101082;28;705;-52
2020/12/25 01:46:39;;;;;;;;;;;11.60;93.30;;;;;;2098572;28;734;-54
2020/12/25 01:47:58;;;;;;;;;;;11.60;93.30;;;;;;2090035;28;759;-53
2020/12/25 01:49:17;;;;;;;;;;;11.60;93.30;;;;;;2103150;28;759;-54
2020/12/25 01:50:36;;;;;;;;;;;11.60;93.30;;;;;;2093250;28;737;-53
2020/12/25 01:51:55;;;;;;;;;;;11.60;93.30;;;;;;2103030;28;1458;-53
2020/12/25 01:53:15;;;;;;;;;;;11.60;93.40;;;;;;2084768;28;728;-53
2020/12/25 01:54:34;;;;;;;;;;;11.60;93.30;;;;;;2091894;28;1910;-54
2020/12/25 01:55:53;;;;;;;;;;;11.60;93.40;;;;;;2089799;28;747;-55
2020/12/25 01:57:13;;;;;;;;;;;11.60;93.30;;;;;;2094544;28;742;-53
2020/12/25 01:58:32;;;;;;;;;;;11.60;93.30;;;;;;2098359;28;765;-52
2020/12/25 01:59:52;;;;;;;;;;;11.60;93.40;;;;;;2087808;28;1497;-52
2020/12/25 02:01:11;;;;;;;;;;;11.60;93.40;;;;;;2080065;28;974;-52
2020/12/25 02:02:30;;;;;;;;;;;11.60;93.30;;;;;;2098680;28;1470;-52
2020/12/25 02:03:50;;;;;;;;;;;11.60;93.40;;;;;;2089541;28;1228;-52
2020/12/25 02:05:09;;;;;;;;;;;11.60;93.40;;;;;;2094643;28;958;-55
2020/12/25 02:06:36;;;;;;;;;;;11.60;93.60;;;;;;2093390;28;861;-53
2020/12/25 02:07:56;;;;;;;;;;;11.50;93.60;;;;;;2085081;28;1583;-51
2020/12/25 02:09:15;;;;;;;;;;;11.60;93.40;;;;;;2088193;28;1114;-53
2020/12/25 02:10:36;;;;;;;;;;;11.50;93.40;;;;;;2098565;28;858;-54
2020/12/25 02:11:55;;;;;;;;;;;11.60;93.40;;;;;;2098474;28;1278;-51
2020/12/25 02:13:14;;;;;;;;;;;11.60;93.40;;;;;;2089882;28;798;-53
2020/12/25 02:14:33;;;;;;;;;;;11.50;93.30;;;;;;2094632;28;1961;-54
2020/12/25 02:15:52;;;;;;;;;;;11.60;93.60;;;;;;2089733;28;736;-53
2020/12/25 02:17:11;;;;;;;;;;;11.50;93.30;;;;;;2095288;28;715;-54
2020/12/25 02:18:37;;;;;;;;;;;11.50;93.30;;;;;;2098629;28;748;-53
2020/12/25 02:19:56;;;;;;;;;;;11.50;93.30;;;;;;2089564;28;798;-52
2020/12/25 02:21:15;;;;;;;;;;;11.50;93.30;;;;;;2086689;28;960;-59
2020/12/25 02:22:35;;;;;;;;;;;11.50;93.40;;;;;;2095127;28;1474;-53
2020/12/25 02:23:54;;;;;;;;;;;11.50;93.40;;;;;;2098826;28;768;-53
2020/12/25 02:25:13;;;;;;;;;;;11.50;93.40;;;;;;2089390;28;851;-53
2020/12/25 02:26:32;;;;;;;;;;;11.50;93.40;;;;;;2095058;28;774;-55
2020/12/25 02:27:51;;;;;;;;;;;11.50;93.40;;;;;;2098524;28;704;-53
2020/12/25 02:29:10;;;;;;;;;;;11.50;93.30;;;;;;2098518;28;961;-55
2020/12/25 02:30:30;;;;;;;;;;;11.50;93.30;;;;;;2089484;28;845;-55
2020/12/25 02:31:49;;;;;;;;;;;11.50;93.40;;;;;;2094744;28;1452;-53
2020/12/25 02:33:08;;;;;;;;;;;11.50;93.40;;;;;;2089453;28;729;-55
2020/12/25 02:34:27;;;;;;;;;;;11.60;93.50;;;;;;2086216;28;1913;-53
2020/12/25 02:35:47;;;;;;;;;;;11.50;93.40;;;;;;2094949;28;749;-54
2020/12/25 02:37:06;;;;;;;;;;;11.50;93.40;;;;;;2098045;28;700;-55
2020/12/25 02:38:25;;;;;;;;;;;11.50;93.40;;;;;;2098252;28;1002;-55
2020/12/25 02:39:44;;;;;;;;;;;11.50;93.50;;;;;;2091774;28;1395;-55
2020/12/25 02:41:03;;;;;;;;;;;11.50;93.40;;;;;;2088610;28;1483;-54
2020/12/25 02:42:23;;;;;;;;;;;11.50;93.50;;;;;;2102580;28;1353;-53
2020/12/25 02:43:42;;;;;;;;;;;11.50;93.40;;;;;;2101350;28;730;-53
2020/12/25 02:45:02;;;;;;;;;;;11.50;93.70;;;;;;2097576;28;720;-51
2020/12/25 02:46:22;;;;;;;;;;;11.50;93.40;;;;;;2089576;28;714;-52
2020/12/25 02:47:41;;;;;;;;;;;11.50;93.30;;;;;;2102926;28;728;-54
2020/12/25 02:49:00;;;;;;;;;;;11.50;93.40;;;;;;2092655;28;724;-52
2020/12/25 02:50:20;;;;;;;;;;;11.50;93.50;;;;;;2078242;28;719;-53
2020/12/25 02:51:39;;;;;;;;;;;11.50;93.40;;;;;;2091329;28;738;-55
2020/12/25 02:52:58;;;;;;;;;;;11.50;93.50;;;;;;2089380;28;770;-55
2020/12/25 02:54:18;;;;;;;;;;;11.50;93.30;;;;;;2089193;28;1910;-55
2020/12/25 02:55:37;;;;;;;;;;;11.50;93.40;;;;;;2094438;28;730;-53
2020/12/25 02:56:56;;;;;;;;;;;11.50;93.50;;;;;;2098337;28;705;-55
2020/12/25 02:58:15;;;;;;;;;;;11.50;93.40;;;;;;2098544;28;701;-53
2020/12/25 02:59:34;;;;;;;;;;;11.50;93.50;;;;;;2098131;28;709;-60
2020/12/25 03:00:53;;;;;;;;;;;11.50;93.50;;;;;;2099098;28;714;-53
2020/12/25 03:02:14;;;;;;;;;;;11.50;93.60;;;;;;2090376;28;1357;-54
2020/12/25 03:03:33;;;;;;;;;;;11.50;93.30;;;;;;2103781;28;796;-54
2020/12/25 03:04:52;;;;;;;;;;;11.50;93.60;;;;;;2093288;28;743;-57
2020/12/25 03:06:11;;;;;;;;;;;11.50;93.50;;;;;;2095493;28;778;-54
2020/12/25 03:07:31;;;;;;;;;;;11.50;93.50;;;;;;2097066;28;1067;-52
2020/12/25 03:08:50;;;;;;;;;;;11.50;93.50;;;;;;2086888;28;1165;-53
2020/12/25 03:10:09;;;;;;;;;;;11.50;93.40;;;;;;2101325;28;1193;-54
2020/12/25 03:11:28;;;;;;;;;;;11.50;93.50;;;;;;2093512;28;754;-52
2020/12/25 03:12:48;;;;;;;;;;;11.50;93.50;;;;;;2095780;28;727;-54
2020/12/25 03:14:07;;;;;;;;;;;11.50;93.60;;;;;;2089781;28;1969;-54
2020/12/25 03:15:26;;;;;;;;;;;11.50;93.50;;;;;;2094491;28;754;-54
2020/12/25 03:16:45;;;;;;;;;;;11.50;93.40;;;;;;2098558;28;773;-53
2020/12/25 03:18:04;;;;;;;;;;;11.50;93.90;;;;;;2089439;28;761;-53
2020/12/25 03:19:23;;;;;;;;;;;11.50;93.60;;;;;;2102489;28;776;-53
2020/12/25 03:20:43;;;;;;;;;;;11.50;93.50;;;;;;2092481;28;770;-51
2020/12/25 03:22:02;;;;;;;;;;;11.50;93.60;;;;;;2094292;28;1439;-55
2020/12/25 03:23:21;;;;;;;;;;;11.50;93.60;;;;;;2098108;28;714;-54
2020/12/25 03:24:40;;;;;;;;;;;11.50;93.60;;;;;;2097734;28;752;-55
2020/12/25 03:26:00;;;;;;;;;;;11.40;93.40;;;;;;2098011;28;974;-54
2020/12/25 03:27:19;;;;;;;;;;;11.40;93.60;;;;;;2097929;28;737;-53
2020/12/25 03:28:38;;;;;;;;;;;11.50;93.60;;;;;;2088797;28;2185;-54
2020/12/25 03:29:57;;;;;;;;;;;11.40;93.60;;;;;;2087793;28;1879;-53
2020/12/25 03:31:17;;;;;;;;;;;11.40;93.50;;;;;;2080169;28;1535;-55
2020/12/25 03:32:36;;;;;;;;;;;11.40;93.50;;;;;;2085964;28;1498;-53
2020/12/25 03:33:55;;;;;;;;;;;11.40;93.60;;;;;;2093361;28;1902;-55
2020/12/25 03:35:14;;;;;;;;;;;11.40;93.40;;;;;;2089666;28;1051;-52
2020/12/25 03:36:33;;;;;;;;;;;11.40;93.60;;;;;;2089886;28;787;-55
2020/12/25 03:37:52;;;;;;;;;;;11.40;93.60;;;;;;2093297;28;1045;-53
2020/12/25 03:39:12;;;;;;;;;;;11.40;93.80;;;;;;2082090;28;1003;-54
2020/12/25 03:40:34;;;;;;;;;;;11.40;93.90;;;;;;2077818;28;754;-52
2020/12/25 03:41:53;;;;;;;;;;;11.40;93.60;;;;;;2081251;28;1404;-52
2020/12/25 03:43:12;;;;;;;;;;;11.40;93.60;;;;;;2081230;28;746;-54
2020/12/25 03:44:31;;;;;;;;;;;11.40;93.70;;;;;;2078111;28;777;-53
2020/12/25 03:45:50;;;;;;;;;;;11.40;93.50;;;;;;2081106;28;779;-54
2020/12/25 03:47:10;;;;;;;;;;;11.40;93.50;;;;;;2076282;28;1056;-54
2020/12/25 03:48:29;;;;;;;;;;;11.40;93.70;;;;;;2070628;28;771;-56
2020/12/25 03:49:48;;;;;;;;;;;11.40;93.60;;;;;;2075791;28;753;-52
2020/12/25 03:51:07;;;;;;;;;;;11.40;93.60;;;;;;2069312;28;785;-55
2020/12/25 03:52:27;;;;;;;;;;;11.40;93.90;;;;;;2075699;28;1385;-54
2020/12/25 03:53:46;;;;;;;;;;;11.40;93.60;;;;;;2082551;28;2013;-54
2020/12/25 03:55:05;;;;;;;;;;;11.40;93.90;;;;;;2082364;28;827;-54
2020/12/25 03:56:24;;;;;;;;;;;11.40;93.60;;;;;;2074108;28;725;-54
2020/12/25 03:57:43;;;;;;;;;;;11.40;93.60;;;;;;2070880;28;745;-53
2020/12/25 03:59:02;;;;;;;;;;;11.40;93.70;;;;;;2074018;28;739;-54
2020/12/25 04:00:22;;;;;;;;;;;11.40;93.70;;;;;;2082513;28;1472;-53
2020/12/25 04:01:41;;;;;;;;;;;11.40;93.60;;;;;;2090894;28;723;-54
2020/12/25 04:03:00;;;;;;;;;;;11.40;93.70;;;;;;2091263;28;776;-54
2020/12/25 04:04:19;;;;;;;;;;;11.40;93.70;;;;;;2091182;28;744;-53
2020/12/25 04:05:39;;;;;;;;;;;11.40;93.60;;;;;;2090320;28;789;-53
2020/12/25 04:06:58;;;;;;;;;;;11.40;93.70;;;;;;2091038;28;737;-54
2020/12/25 04:08:17;;;;;;;;;;;11.40;93.70;;;;;;2097504;28;1115;-54
2020/12/25 04:09:37;;;;;;;;;;;11.40;93.70;;;;;;2092671;28;880;-53
2020/12/25 04:10:56;;;;;;;;;;;11.40;93.60;;;;;;2090678;28;728;-54
2020/12/25 04:12:15;;;;;;;;;;;11.40;94.00;;;;;;2087939;28;1402;-53
2020/12/25 04:13:34;;;;;;;;;;;11.40;93.90;;;;;;2093476;28;763;-53
2020/12/25 04:14:53;;;;;;;;;;;11.40;94.00;;;;;;2098476;28;724;-53
2020/12/25 04:16:13;;;;;;;;;;;11.40;93.80;;;;;;2078783;28;778;-53
2020/12/25 04:17:32;;;;;;;;;;;11.40;93.70;;;;;;2077551;28;1449;-52
2020/12/25 04:18:51;;;;;;;;;;;11.40;93.70;;;;;;2088705;28;1496;-51
2020/12/25 04:20:10;;;;;;;;;;;11.40;93.70;;;;;;2080924;28;815;-54
2020/12/25 04:21:29;;;;;;;;;;;11.30;93.60;;;;;;2082822;28;1396;-54
2020/12/25 04:22:49;;;;;;;;;;;11.30;93.70;;;;;;2090825;28;1582;-53
2020/12/25 04:24:08;;;;;;;;;;;11.30;93.80;;;;;;2090760;28;1135;-55
2020/12/25 04:25:27;;;;;;;;;;;11.30;93.70;;;;;;2089841;28;825;-54
2020/12/25 04:26:47;;;;;;;;;;;11.30;93.50;;;;;;2090867;28;795;-56
2020/12/25 04:28:06;;;;;;;;;;;11.30;93.70;;;;;;2090465;28;715;-54
2020/12/25 04:29:25;;;;;;;;;;;11.30;93.70;;;;;;2087381;28;767;-56
2020/12/25 04:30:44;;;;;;;;;;;11.30;93.60;;;;;;2090766;28;1037;-53
2020/12/25 04:32:03;;;;;;;;;;;11.30;93.70;;;;;;2090281;28;1470;-55
2020/12/25 04:33:22;;;;;;;;;;;11.30;94.00;;;;;;2090081;28;1486;-54
2020/12/25 04:34:41;;;;;;;;;;;11.30;93.60;;;;;;2084229;28;1910;-55
2020/12/25 04:36:01;;;;;;;;;;;11.30;93.80;;;;;;2090283;28;788;-53
2020/12/25 04:37:20;;;;;;;;;;;11.30;93.80;;;;;;2090612;28;981;-53
2020/12/25 04:38:39;;;;;;;;;;;11.30;93.70;;;;;;2092966;28;904;-53
2020/12/25 04:39:58;;;;;;;;;;;11.30;93.80;;;;;;2085596;28;1196;-53
2020/12/25 04:41:18;;;;;;;;;;;11.30;93.70;;;;;;2086288;28;745;-53
2020/12/25 04:42:40;;;;;;;;;;;11.30;93.70;;;;;;2083297;28;1422;-54
2020/12/25 04:44:00;;;;;;;;;;;11.30;93.80;;;;;;2082413;28;1313;-55
2020/12/25 04:45:19;;;;;;;;;;;11.30;93.70;;;;;;2086651;28;1522;-55
2020/12/25 04:46:38;;;;;;;;;;;11.30;94.10;;;;;;2095287;28;1306;-54
2020/12/25 04:47:57;;;;;;;;;;;11.30;94.00;;;;;;2092767;28;1295;-52
2020/12/25 04:49:17;;;;;;;;;;;11.30;93.80;;;;;;2087676;28;1207;-55
2020/12/25 04:50:36;;;;;;;;;;;11.30;93.60;;;;;;2083001;28;1382;-52
2020/12/25 04:51:55;;;;;;;;;;;11.30;93.70;;;;;;2092496;28;1481;-51
2020/12/25 04:53:14;;;;;;;;;;;11.30;93.70;;;;;;2097513;28;1250;-54
2020/12/25 04:54:34;;;;;;;;;;;11.30;93.70;;;;;;2084303;28;1971;-53
2020/12/25 04:55:53;;;;;;;;;;;11.30;93.80;;;;;;2093608;28;1418;-52
2020/12/25 04:57:12;;;;;;;;;;;11.30;93.80;;;;;;2095931;28;1321;-53
2020/12/25 04:58:31;;;;;;;;;;;11.30;93.80;;;;;;2096963;28;1227;-53
2020/12/25 04:59:51;;;;;;;;;;;11.30;93.80;;;;;;2085037;28;1375;-54
2020/12/25 05:01:11;;;;;;;;;;;11.30;93.90;;;;;;2091427;28;1387;-52
2020/12/25 05:02:30;;;;;;;;;;;11.30;93.90;;;;;;2097320;28;1353;-53
2020/12/25 05:03:49;;;;;;;;;;;11.30;93.80;;;;;;2086057;28;1348;-52
2020/12/25 05:05:09;;;;;;;;;;;11.30;93.80;;;;;;2091694;28;1416;-53
2020/12/25 05:06:29;;;;;;;;;;;11.30;93.80;;;;;;2093365;28;1285;-52
2020/12/25 05:07:48;;;;;;;;;;;11.30;93.90;;;;;;2085483;28;1350;-52
2020/12/25 05:09:08;;;;;;;;;;;11.30;93.90;;;;;;2086072;28;1394;-54
2020/12/25 05:10:27;;;;;;;;;;;11.30;93.70;;;;;;2086283;28;1298;-53
2020/12/25 05:11:53;;;;;;;;;;;11.30;93.80;;;;;;2080003;28;1530;-53
2020/12/25 05:13:12;;;;;;;;;;;11.30;93.80;;;;;;2094397;28;1316;-53
2020/12/25 05:14:34;;;;;;;;;;;11.30;94.20;;;;;;2087711;28;1953;-53
2020/12/25 05:15:53;;;;;;;;;;;11.30;93.80;;;;;;2096413;28;1289;-52
2020/12/25 05:17:12;;;;;;;;;;;11.20;93.80;;;;;;2097875;28;1322;-52
2020/12/25 05:18:32;;;;;;;;;;;11.30;93.80;;;;;;2093671;28;1426;-54
2020/12/25 05:19:51;;;;;;;;;;;11.30;93.80;;;;;;2088097;28;1289;-52
2020/12/25 05:21:13;;;;;;;;;;;11.30;93.80;;;;;;2080230;28;1537;-52
2020/12/25 05:22:32;;;;;;;;;;;11.30;93.70;;;;;;2084235;28;1526;-55
2020/12/25 05:23:53;;;;;;;;;;;11.30;94.10;;;;;;2087272;28;1346;-53
2020/12/25 05:25:12;;;;;;;;;;;11.30;93.70;;;;;;2094192;28;1330;-54
2020/12/25 05:26:31;;;;;;;;;;;11.30;93.80;;;;;;2085444;28;1462;-53
2020/12/25 05:27:51;;;;;;;;;;;11.30;93.70;;;;;;2088941;28;1321;-53
2020/12/25 05:29:10;;;;;;;;;;;11.40;93.70;;;;;;2097270;28;1421;-51
2020/12/25 05:30:29;;;;;;;;;;;11.40;93.70;;;;;;2083457;28;1264;-53
2020/12/25 05:31:49;;;;;;;;;;;11.50;93.70;;;;;;2099226;28;1401;-52
2020/12/25 05:33:09;;;;;;;;;;;11.50;93.50;;;;;;2089371;28;1323;-52
2020/12/25 05:34:28;;;;;;;;;;;11.50;93.20;;;;;;2079748;28;1930;-52
2020/12/25 05:35:49;;;;;;;;;;;11.60;92.90;;;;;;2097048;28;1335;-52
2020/12/25 05:37:08;;;;;;;;;;;11.70;92.70;;;;;;2086536;28;1377;-54
2020/12/25 05:38:28;;;;;;;;;;;11.70;92.40;;;;;;2090694;28;1210;-54
2020/12/25 05:39:47;;;;;;;;;;;11.80;92.10;;;;;;2092772;28;1350;-54
2020/12/25 05:41:07;;;;;;;;;;;11.80;91.90;;;;;;2085498;28;1360;-51
2020/12/25 05:42:26;;;;;;;;;;;11.90;91.80;;;;;;2087389;28;1418;-52
2020/12/25 05:43:46;;;;;;;;;;;11.90;91.50;;;;;;2092796;28;1379;-52
2020/12/25 05:45:05;;;;;;;;;;;11.90;91.40;;;;;;2090720;28;1264;-54
2020/12/25 05:46:24;;;;;;;;;;;12.00;91.10;;;;;;2087146;28;1393;-53
2020/12/25 05:47:44;;;;;;;;;;;12.00;90.90;;;;;;2076916;28;1340;-55
2020/12/25 05:49:03;;;;;;;;;;;12.10;90.80;;;;;;2101440;28;1295;-52
2020/12/25 05:50:23;;;;;;;;;;;12.10;90.50;;;;;;2096266;28;1270;-52
2020/12/25 05:51:45;;;;;;;;;;;12.20;90.30;;;;;;2091004;28;1368;-54
2020/12/25 05:53:05;;;;;;;;;;;12.20;90.00;;;;;;2090773;28;1429;-54
2020/12/25 05:54:24;;;;;;;;;;;12.30;89.70;;;;;;2085082;28;1976;-52
2020/12/25 05:55:44;;;;;;;;;;;12.30;89.40;;;;;;2083007;28;1405;-55
2020/12/25 05:57:03;;;;;;;;;;;12.30;89.00;;;;;;2078902;28;1148;-53
2020/12/25 05:58:22;;;;;;;;;;;12.30;88.60;;;;;;2077988;28;1252;-54
2020/12/25 05:59:44;;;;;;;;;;;12.40;88.30;;;;;;2080607;28;1302;-54
2020/12/25 06:01:03;;;;;;;;;;;12.30;88.20;;;;;;2099157;28;1225;-52
2020/12/25 06:02:22;;;;;;;;;;;12.30;88.00;;;;;;2078908;28;1500;-55
2020/12/25 06:03:42;;;;;;;;;;;12.40;88.10;;;;;;2086217;28;1313;-53
2020/12/25 06:05:01;;;;;;;;;;;12.30;88.60;;;;;;2069561;28;1308;-53
2020/12/25 06:06:23;;;;;;;;;;;12.40;89.00;;;;;;2085883;28;1306;-55
2020/12/25 06:08:02;;;;;;;;;;;12.40;88.40;;;;;;2084815;28;1331;-54
2020/12/25 06:09:29;;;;;;;;;;;12.30;88.40;;;;;;2091053;28;1325;-53
2020/12/25 06:10:48;;;;;;;;;;;12.30;88.70;;;;;;2084292;28;1504;-52
2020/12/25 06:12:07;;;;;;;;;;;12.30;88.70;;;;;;2091504;28;1521;-53
2020/12/25 06:13:26;;;;;;;;;;;12.30;89.00;;;;;;2081565;28;1222;-54
2020/12/25 06:14:45;;;;;;;;;;;12.30;89.10;;;;;;2088562;28;1906;-52
2020/12/25 06:16:05;;;;;;;;;;;12.20;89.20;;;;;;2086680;28;1233;-52
2020/12/25 06:17:24;;;;;;;;;;;12.30;89.50;;;;;;2087251;28;1370;-54
2020/12/25 06:18:46;;;;;;;;;;;12.30;89.60;;;;;;2091752;28;1370;-54
2020/12/25 06:20:05;;;;;;;;;;;12.20;89.70;;;;;;2083575;28;1190;-53
2020/12/25 06:21:37;;;;;;;;;;;12.20;89.90;;;;;;2092417;28;1440;-53
2020/12/25 06:22:56;;;;;;;;;;;12.20;90.30;;;;;;2096227;28;1231;-53
2020/12/25 06:24:16;;;;;;;;;;;12.20;90.10;;;;;;2085281;28;1406;-52
2020/12/25 06:25:36;;;;;;;;;;;12.20;90.20;;;;;;2082121;28;1279;-52
2020/12/25 06:26:55;;;;;;;;;;;12.20;90.60;;;;;;2082035;28;1353;-53
2020/12/25 06:28:14;;;;;;;;;;;12.20;90.30;;;;;;2075877;28;1358;-53
2020/12/25 06:29:33;;;;;;;;;;;12.10;90.40;;;;;;2075859;28;1379;-53
2020/12/25 06:30:53;;;;;;;;;;;12.20;90.50;;;;;;2093347;28;1379;-53
2020/12/25 06:32:12;;;;;;;;;;;12.20;90.60;;;;;;2094136;28;1459;-52
2020/12/25 06:33:31;;;;;;;;;;;12.10;90.70;;;;;;2096546;28;1479;-54
2020/12/25 06:34:51;;;;;;;;;;;12.20;90.80;;;;;;2093925;28;1935;-54
2020/12/25 06:36:10;;;;;;;;;;;12.10;90.90;;;;;;2096720;28;1305;-53
2020/12/25 06:37:30;;;;;;;;;;;12.10;91.00;;;;;;2085435;28;1435;-55
2020/12/25 06:38:49;;;;;;;;;;;12.20;91.10;;;;;;2101051;28;1329;-54
2020/12/25 06:40:08;;;;;;;;;;;12.20;91.00;;;;;;2090664;28;1226;-52
2020/12/25 06:41:27;;;;;;;;;;;12.20;90.90;;;;;;2089771;28;1454;-53
2020/12/25 06:42:46;;;;;;;;;;;12.30;91.10;;;;;;2087618;28;1413;-53
2020/12/25 06:44:06;;;;;;;;;;;12.40;90.90;;;;;;2077611;28;1293;-52
2020/12/25 06:45:29;;;;;;;;;;;12.40;90.40;;;;;;2085273;28;1374;-54
2020/12/25 06:46:49;;;;;;;;;;;12.40;90.20;;;;;;2093979;28;1283;-54
2020/12/25 06:48:09;;;;;;;;;;;12.50;90.00;;;;;;2093450;28;1299;-53
2020/12/25 06:49:35;;;;;;;;;;;12.50;89.60;;;;;;2096567;28;1255;-53
2020/12/25 06:51:01;;;;;;;;;;;12.60;88.90;;;;;;2096613;28;1508;-52
2020/12/25 06:52:24;;;;;;;;;;;12.60;88.40;;;;;;2087413;28;1436;-53
2020/12/25 06:53:43;;;;;;;;;;;12.70;88.20;;;;;;2093445;28;1411;-54
2020/12/25 06:55:02;;;;;;;;;;;12.70;87.80;;;;;;2086901;28;1342;-52
2020/12/25 06:56:21;;;;;;;;;;;12.70;87.80;;;;;;2084440;28;1200;-52
2020/12/25 06:57:41;;;;;;;;;;;12.70;87.80;;;;;;2089921;28;1471;-53
2020/12/25 06:59:00;;;;;;;;;;;12.70;87.50;;;;;;2095749;28;1261;-53
2020/12/25 07:00:20;;;;;;;;;;;12.70;87.20;;;;;;2096018;28;1209;-53
2020/12/25 07:01:40;;;;;;;;;;;12.80;87.10;;;;;;2096768;28;1514;-55
2020/12/25 07:03:11;;;;;;;;;;;12.80;86.80;;;;;;2084842;28;1389;-52
2020/12/25 07:04:31;;;;;;;;;;;12.80;86.70;;;;;;2085057;28;1362;-51
2020/12/25 07:05:50;;;;;;;;;;;12.80;86.50;;;;;;2092905;28;1492;-52
2020/12/25 07:07:09;;;;;;;;;;;12.90;86.60;;;;;;2079213;28;1407;-53
2020/12/25 07:08:29;;;;;;;;;;;12.90;86.40;;;;;;2084462;28;1233;-54
2020/12/25 07:09:49;;;;;;;;;;;12.90;86.40;;;;;;2090791;28;1363;-53
2020/12/25 07:11:08;;;;;;;;;;;12.90;86.30;;;;;;2095787;28;1371;-53
2020/12/25 07:12:27;;;;;;;;;;;12.90;85.80;;;;;;2103661;28;1530;-53
2020/12/25 07:13:46;;;;;;;;;;;13.00;85.80;;;;;;2089298;28;1360;-53
2020/12/25 07:15:06;;;;;;;;;;;13.00;85.50;;;;;;2089829;28;1417;-54
2020/12/25 07:16:25;;;;;;;;;;;13.00;85.30;;;;;;2096504;28;1332;-55
2020/12/25 07:17:45;;;;;;;;;;;13.00;85.30;;;;;;2084490;28;1407;-55
2020/12/25 07:19:04;;;;;;;;;;;13.00;85.20;;;;;;2092955;28;1330;-54
2020/12/25 07:20:23;;;;;;;;;;;13.00;85.20;;;;;;2087468;28;1224;-52
2020/12/25 07:21:42;;;;;;;;;;;13.00;85.30;;;;;;2092237;28;1342;-51
2020/12/25 07:23:02;;;;;;;;;;;13.00;85.40;;;;;;2091788;28;1388;-52
2020/12/25 07:24:21;;;;;;;;;;;13.00;85.50;;;;;;2079427;28;1250;-55
2020/12/25 07:25:41;;;;;;;;;;;13.00;85.60;;;;;;2082740;28;1324;-52
2020/12/25 07:27:00;;;;;;;;;;;13.00;85.80;;;;;;2086310;28;1295;-54
2020/12/25 07:28:21;;;;;;;;;;;13.00;86.10;;;;;;2091647;28;1275;-54
2020/12/25 07:29:41;;;;;;;;;;;12.90;87.00;;;;;;2083326;28;1313;-52
2020/12/25 07:31:00;;;;;;;;;;;12.90;86.50;;;;;;2099243;28;1348;-52
2020/12/25 07:32:20;;;;;;;;;;;13.00;86.80;;;;;;2094950;28;1427;-55
2020/12/25 07:33:39;;;;;;;;;;;12.90;86.90;;;;;;2092064;28;1261;-53
2020/12/25 07:35:05;;;;;;;;;;;12.90;87.00;;;;;;2071659;28;1289;-52
2020/12/25 07:36:24;;;;;;;;;;;13.00;87.10;;;;;;2080776;28;1285;-53
2020/12/25 07:37:51;;;;;;;;;;;13.00;87.90;;;;;;2090289;28;1383;-54
2020/12/25 07:39:09;;;;;;;;;;;13.00;87.10;;;;;;2098045;28;1476;-53
2020/12/25 07:40:29;;;;;;;;;;;13.10;87.10;;;;;;2099028;28;1615;-51
2020/12/25 07:41:48;;;;;;;;;;;13.10;86.70;;;;;;2091945;28;1444;-51
2020/12/25 07:43:09;;;;;;;;;;;13.10;86.40;;;;;;2073586;28;1410;-52
2020/12/25 07:44:28;;;;;;;;;;;13.20;86.10;;;;;;2080126;28;1328;-54
2020/12/25 07:45:47;;;;;;;;;;;13.20;85.60;;;;;;2088750;28;1594;-52
2020/12/25 07:47:08;;;;;;;;;;;13.20;86.20;;;;;;2090251;28;1260;-53
2020/12/25 07:48:27;;;;;;;;;;;13.30;85.20;;;;;;2083561;28;1329;-52
2020/12/25 07:49:46;;;;;;;;;;;13.30;85.00;;;;;;2088502;28;1440;-53
2020/12/25 07:51:06;;;;;;;;;;;13.30;84.90;;;;;;2089842;28;1278;-51
2020/12/25 07:52:25;;;;;;;;;;;13.30;84.70;;;;;;2083601;28;1335;-53
2020/12/25 07:53:50;;;;;;;;;;;13.30;84.80;;;;;;2097198;28;1344;-52